createdAt,value
2019-03-06T00:01:50.135Z,9.77
2019-03-06T00:06:44.087Z,6.33
2019-03-06T00:11:37.949Z,7.43
2019-03-06T00:16:31.775Z,5.33
2019-03-06T00:21:25.815Z,6.50
2019-03-06T00:26:19.680Z,10.23
2019-03-06T00:31:13.530Z,8.10
2019-03-06T00:36:09.288Z,8.20
2019-03-06T00:41:05.057Z,8.63
2019-03-06T00:45:58.982Z,9.33
2019-03-06T00:50:53.159Z,10.83
2019-03-06T00:55:47.025Z,10.93
2019-03-06T01:00:40.847Z,11.23
2019-03-06T01:05:34.995Z,13.00
2019-03-06T01:10:28.828Z,14.30
2019-03-06T01:15:22.698Z,13.67
2019-03-06T01:20:16.945Z,15.30
2019-03-06T01:25:18.502Z,15.33
2019-03-06T01:30:18.110Z,16.90
2019-03-06T01:35:21.428Z,14.07
2019-03-06T01:40:29.502Z,20.03
2019-03-06T01:45:23.550Z,18.87
2019-03-06T01:50:17.412Z,17.67
2019-03-06T01:55:12.387Z,19.73
2019-03-06T02:00:09.947Z,20.27
2019-03-06T02:05:07.632Z,21.70
2019-03-06T02:10:01.693Z,19.20
2019-03-06T02:14:55.569Z,19.27
2019-03-06T02:19:49.521Z,18.97
2019-03-06T02:24:43.357Z,22.27
2019-03-06T02:29:37.232Z,19.00
2019-03-06T02:34:31.110Z,22.73
2019-03-06T02:39:24.972Z,24.90
2019-03-06T02:44:18.863Z,22.47
2019-03-06T02:49:12.684Z,23.17
2019-03-06T02:54:06.584Z,23.67
2019-03-06T02:59:02.309Z,23.17
2019-03-06T03:04:07.176Z,22.53
2019-03-06T03:09:01.276Z,23.57
2019-03-06T03:13:55.171Z,28.77
2019-03-06T03:18:49.270Z,22.37
2019-03-06T03:23:43.122Z,26.37
2019-03-06T03:28:37.046Z,24.57
2019-03-06T03:33:31.103Z,23.47
2019-03-06T03:38:24.940Z,23.10
2019-03-06T03:43:18.796Z,26.43
2019-03-06T03:48:12.645Z,28.27
2019-03-06T03:53:06.538Z,22.73
2019-03-06T03:58:00.385Z,25.17
2019-03-06T04:02:54.344Z,25.90
2019-03-06T04:07:48.210Z,22.60
2019-03-06T04:12:42.058Z,25.53
2019-03-06T04:17:35.918Z,25.40
2019-03-06T04:22:29.781Z,26.97
2019-03-06T04:27:23.595Z,26.70
2019-03-06T04:32:17.468Z,24.47
2019-03-06T04:37:11.385Z,23.73
2019-03-06T04:42:05.244Z,22.80
2019-03-06T04:46:59.264Z,22.50
2019-03-06T04:51:53.154Z,24.87
2019-03-06T04:56:47.003Z,20.10
2019-03-06T05:01:41.039Z,21.60
2019-03-06T05:06:34.991Z,22.57
2019-03-06T05:11:28.899Z,21.37
2019-03-06T05:16:24.661Z,19.70
2019-03-06T05:21:18.508Z,19.43
2019-03-06T05:26:12.358Z,21.87
2019-03-06T05:31:06.325Z,22.13
2019-03-06T05:36:32.441Z,20.90
2019-03-06T05:41:26.788Z,24.33
2019-03-06T05:46:20.736Z,18.70
2019-03-06T05:51:14.578Z,20.87
2019-03-06T05:56:08.458Z,22.00
2019-03-06T06:01:02.550Z,21.50
2019-03-06T06:05:56.400Z,20.73
2019-03-06T06:10:50.314Z,25.20
2019-03-06T06:15:47.173Z,23.40
2019-03-06T06:20:41.213Z,27.07
2019-03-06T06:25:36.068Z,22.27
2019-03-06T06:30:30.213Z,23.87
2019-03-06T06:35:24.087Z,24.90
2019-03-06T06:40:18.054Z,24.03
2019-03-06T06:45:13.201Z,20.33
2019-03-06T06:50:08.365Z,23.23
2019-03-06T06:55:09.106Z,22.50
2019-03-06T07:00:28.769Z,18.27
2019-03-06T07:05:30.351Z,21.13
2019-03-06T07:10:42.712Z,22.27
2019-03-06T07:15:41.335Z,16.87
2019-03-06T07:20:46.644Z,18.27
2019-03-06T07:25:45.458Z,19.17
2019-03-06T07:30:41.231Z,15.30
2019-03-06T07:36:00.303Z,13.97
2019-03-06T07:40:58.823Z,14.70
2019-03-06T07:46:00.724Z,14.40
2019-03-06T07:51:05.755Z,15.77
2019-03-06T07:56:01.577Z,12.43
2019-03-06T08:00:55.440Z,11.70
2019-03-06T08:05:49.286Z,12.60
2019-03-06T08:10:43.259Z,10.90
2019-03-06T08:15:39.329Z,10.40
2019-03-06T08:20:35.220Z,10.27
2019-03-06T08:25:37.237Z,11.20
2019-03-06T08:30:33.085Z,9.37
2019-03-06T08:35:26.945Z,6.80
2019-03-06T08:40:21.110Z,8.13
2019-03-06T08:45:34.993Z,14.13
2019-03-06T08:50:31.161Z,9.50
2019-03-06T08:55:26.967Z,8.80
2019-03-06T09:00:39.258Z,7.87
2019-03-06T09:05:53.347Z,5.50
2019-03-06T09:10:49.429Z,5.40
2019-03-06T09:15:45.298Z,8.90
2019-03-06T09:20:57.641Z,5.47
2019-03-06T09:26:10.366Z,6.63
2019-03-06T09:31:21.702Z,6.90
2019-03-06T09:36:32.811Z,7.30
2019-03-06T09:41:28.576Z,5.43
2019-03-06T09:46:39.941Z,4.57
2019-03-06T09:51:52.072Z,4.63
2019-03-06T09:57:04.513Z,3.13
2019-03-06T10:02:06.662Z,6.03
2019-03-06T10:07:00.928Z,4.33
2019-03-06T10:11:56.697Z,4.80
2019-03-06T10:17:01.581Z,6.13
2019-03-06T10:21:55.604Z,4.37
2019-03-06T10:26:49.896Z,7.47
2019-03-06T10:31:43.747Z,3.93
2019-03-06T10:36:37.619Z,5.33
2019-03-06T10:41:31.499Z,7.37
2019-03-06T10:46:25.469Z,3.67
2019-03-06T10:51:19.364Z,7.30
2019-03-06T10:56:13.253Z,5.67
2019-03-06T11:01:07.324Z,5.43
2019-03-06T11:06:01.350Z,4.93
2019-03-06T11:10:55.313Z,4.27
2019-03-06T11:15:55.657Z,6.63
2019-03-06T11:20:45.399Z,4.30
2019-03-06T11:25:39.843Z,4.27
2019-03-06T11:30:37.535Z,7.23
2019-03-06T11:35:31.585Z,3.43
2019-03-06T11:40:25.546Z,8.50
2019-03-06T11:45:19.507Z,5.37
2019-03-06T11:50:14.994Z,5.23
2019-03-06T11:55:11.155Z,7.95
2019-03-06T12:00:18.979Z,6.37
2019-03-06T12:05:13.048Z,4.87
2019-03-06T12:10:08.224Z,8.83
2019-03-06T12:15:04.562Z,4.77
2019-03-06T12:20:07.534Z,4.57
2019-03-06T12:24:54.255Z,4.60
2019-03-06T12:29:48.214Z,7.53
2019-03-06T12:34:42.218Z,8.87
2019-03-06T12:39:36.091Z,4.90
2019-03-06T12:44:30.056Z,5.25
2019-03-06T12:49:24.352Z,4.03
2019-03-06T12:54:18.366Z,6.07
2019-03-06T12:59:13.406Z,4.90
2019-03-06T13:04:07.227Z,5.67
2019-03-06T13:09:05.003Z,7.40
2019-03-06T13:13:58.998Z,6.60
2019-03-06T13:18:52.858Z,5.60
2019-03-06T13:23:46.943Z,5.57
2019-03-06T13:28:40.790Z,4.33
2019-03-06T13:33:42.572Z,3.97
2019-03-06T13:38:36.730Z,5.83
2019-03-06T13:43:30.605Z,4.33
2019-03-06T13:48:24.677Z,5.23
2019-03-06T13:53:20.545Z,5.47
2019-03-06T13:58:14.864Z,7.33
2019-03-06T14:03:08.838Z,5.77
2019-03-06T14:08:03.883Z,5.90
2019-03-06T14:12:57.946Z,4.07
2019-03-06T14:17:51.988Z,4.97
2019-03-06T14:22:45.934Z,5.83
2019-03-06T14:27:39.931Z,6.20
2019-03-06T14:32:33.870Z,4.00
2019-03-06T14:37:28.644Z,5.27
2019-03-06T14:42:22.720Z,5.93
2019-03-06T14:47:17.223Z,3.30
2019-03-06T14:52:11.105Z,3.57
2019-03-06T14:57:05.094Z,5.43
2019-03-06T15:01:58.959Z,6.53
2019-03-06T15:06:53.283Z,6.13
2019-03-06T15:11:47.137Z,5.87
2019-03-06T15:16:41.229Z,7.83
2019-03-06T15:21:35.096Z,6.30
2019-03-06T15:26:29.099Z,7.57
2019-03-06T15:31:22.964Z,6.43
2019-03-06T15:36:16.916Z,6.77
2019-03-06T15:41:11.103Z,3.93
2019-03-06T15:46:05.152Z,6.90
2019-03-06T15:50:59.251Z,5.53
2019-03-06T15:55:53.580Z,9.63
2019-03-06T16:00:47.476Z,8.83
2019-03-06T16:05:41.732Z,6.70
2019-03-06T16:10:35.812Z,6.97
2019-03-06T16:15:30.137Z,6.77
2019-03-06T16:20:24.105Z,7.80
2019-03-06T16:25:18.158Z,8.23
2019-03-06T16:30:17.142Z,6.27
2019-03-06T16:35:11.130Z,9.03
2019-03-06T16:40:08.105Z,8.03
2019-03-06T16:45:03.576Z,7.70
2019-03-06T16:49:57.538Z,5.97
2019-03-06T16:54:51.505Z,6.60
2019-03-06T16:59:45.420Z,9.90
2019-03-06T17:04:39.654Z,7.87
2019-03-06T17:09:33.700Z,8.47
2019-03-06T17:14:27.680Z,5.73
2019-03-06T17:19:21.643Z,6.10
2019-03-06T17:24:15.652Z,10.27
2019-03-06T17:29:11.160Z,7.00
2019-03-06T17:34:05.069Z,5.43
2019-03-06T17:38:59.214Z,10.03
2019-03-06T17:43:53.088Z,9.57
2019-03-06T17:48:46.939Z,9.37
2019-03-06T17:53:41.033Z,10.73
2019-03-06T17:58:34.927Z,10.63
2019-03-06T18:03:30.723Z,8.20
2019-03-06T18:08:24.733Z,10.57
2019-03-06T18:13:18.783Z,10.40
2019-03-06T18:18:12.766Z,8.43
2019-03-06T18:23:06.899Z,13.27
2019-03-06T18:28:00.881Z,7.93
2019-03-06T18:32:55.061Z,11.63
2019-03-06T18:37:49.575Z,10.73
2019-03-06T18:42:43.680Z,9.43
2019-03-06T18:47:37.577Z,8.00
2019-03-06T18:52:31.464Z,10.13
2019-03-06T18:57:25.631Z,6.27
2019-03-06T19:02:19.559Z,9.27
2019-03-06T19:07:13.558Z,6.80
2019-03-06T19:12:07.626Z,8.67
2019-03-06T19:17:01.531Z,13.70
2019-03-06T19:21:55.389Z,7.13
2019-03-06T19:26:49.448Z,11.07
2019-03-06T19:31:43.566Z,6.53
2019-03-06T19:36:37.593Z,6.77
2019-03-06T19:41:31.526Z,9.17
2019-03-06T19:46:25.498Z,8.20
2019-03-06T19:51:19.551Z,8.33
2019-03-06T19:56:13.501Z,7.70
2019-03-06T20:01:07.628Z,10.13
2019-03-06T20:06:01.549Z,9.57
2019-03-06T20:10:55.432Z,12.23
2019-03-06T20:15:49.440Z,9.90
2019-03-06T20:20:43.549Z,9.87
2019-03-06T20:25:37.652Z,13.27
2019-03-06T20:30:31.730Z,10.07
2019-03-06T20:35:25.840Z,12.00
2019-03-06T20:40:20.672Z,15.43
2019-03-06T20:45:16.162Z,15.43
2019-03-06T20:50:12.260Z,13.63
2019-03-06T20:55:08.381Z,14.13
2019-03-06T21:00:05.201Z,15.13
2019-03-06T21:05:00.961Z,20.13
2019-03-06T21:09:55.058Z,12.60
2019-03-06T21:14:48.894Z,17.37
2019-03-06T21:19:42.866Z,12.20
2019-03-06T21:24:36.740Z,17.60
2019-03-06T21:29:30.811Z,19.30
2019-03-06T21:34:24.935Z,11.13
2019-03-06T21:39:22.720Z,16.77
2019-03-06T21:44:16.809Z,18.00
2019-03-06T21:49:10.700Z,17.73
2019-03-06T21:54:04.683Z,14.27
2019-03-06T21:58:58.673Z,18.57
2019-03-06T22:03:52.555Z,16.93
2019-03-06T22:08:46.525Z,10.93
2019-03-06T22:13:40.488Z,13.60
2019-03-06T22:18:34.681Z,12.00
2019-03-06T22:23:28.554Z,12.50
2019-03-06T22:28:22.510Z,10.20
2019-03-06T22:33:16.341Z,15.57
2019-03-06T22:38:10.207Z,9.50
2019-03-06T22:43:04.105Z,11.10
2019-03-06T22:47:57.989Z,9.00
2019-03-06T22:52:51.945Z,12.73
2019-03-06T22:57:45.930Z,13.37
2019-03-06T23:02:40.019Z,12.13
2019-03-06T23:07:33.952Z,14.83
2019-03-06T23:12:27.824Z,10.30
2019-03-06T23:17:21.689Z,12.67
2019-03-06T23:22:15.671Z,12.90
2019-03-06T23:27:09.513Z,11.10
2019-03-06T23:32:03.363Z,12.70
2019-03-06T23:36:57.252Z,12.63
2019-03-06T23:41:51.123Z,11.93
2019-03-06T23:46:45.089Z,11.33
2019-03-06T23:51:40.878Z,10.03
2019-03-06T23:56:35.143Z,12.43
